West Lebanon, Indiana
Current Conditions -  °F | °C
As of 3:15 PM on Thursday 23 Oct 2014 (Local Time) from KDNV Reporting Station
Clear Clear  
Wind Chill: 60°   Ceiling: Unl
Heat Index: 60°   Visibility: 10mi
Dew Point: 43°   Wind: 10mph
Humidity: 54%   Direction: 230°SW
Pressure: 30.13"   Gusts: NA
Location:  40.27°N, 87.39°W
Report Text: KDNV 231915Z AUTO 23009KT 10SM CLR 15/06 A3013 RMK AO2 T01530060
Loading
Personal Weather Stations






























Interactive Weather Map New forecast layout! Learn more

10-Day Weather Forecast

Advertisements
Track Severe Weather on mobile